sensor_id;sensor_type;location;lat;lon;timestamp;temperature;humidity
33793;DHT22;20105;48.764;9.178;2022-10-23T00:03:41;12.00;99.90
33793;DHT22;20105;48.764;9.178;2022-10-23T00:06:07;12.00;99.90
33793;DHT22;20105;48.764;9.178;2022-10-23T00:08:33;11.90;99.90
33793;DHT22;20105;48.764;9.178;2022-10-23T00:10:59;11.90;99.90
33793;DHT22;20105;48.764;9.178;2022-10-23T00:13:25;11.80;99.90
33793;DHT22;20105;48.764;9.178;2022-10-23T00:15:50;11.80;99.90
33793;DHT22;20105;48.764;9.178;2022-10-23T00:18:16;11.70;99.90
33793;DHT22;20105;48.764;9.178;2022-10-23T00:20:41;11.70;99.90
33793;DHT22;20105;48.764;9.178;2022-10-23T00:23:07;11.70;99.90
33793;DHT22;20105;48.764;9.178;2022-10-23T00:25:32;11.70;99.90
33793;DHT22;20105;48.764;9.178;2022-10-23T00:27:58;11.70;99.90
33793;DHT22;20105;48.764;9.178;2022-10-23T00:30:24;11.60;99.90
33793;DHT22;20105;48.764;9.178;2022-10-23T00:32:50;11.60;99.90
33793;DHT22;20105;48.764;9.178;2022-10-23T00:35:15;11.60;99.90
33793;DHT22;20105;48.764;9.178;2022-10-23T00:37:41;11.60;99.90
33793;DHT22;20105;48.764;9.178;2022-10-23T00:40:07;11.60;99.90
33793;DHT22;20105;48.764;9.178;2022-10-23T00:42:33;11.60;99.90
33793;DHT22;20105;48.764;9.178;2022-10-23T00:45:25;11.60;99.90
33793;DHT22;20105;48.764;9.178;2022-10-23T00:47:51;11.60;99.90
33793;DHT22;20105;48.764;9.178;2022-10-23T00:50:21;11.50;99.90
33793;DHT22;20105;48.764;9.178;2022-10-23T00:52:49;11.50;99.90
33793;DHT22;20105;48.764;9.178;2022-10-23T00:55:17;11.50;99.80
33793;DHT22;20105;48.764;9.178;2022-10-23T00:57:44;11.50;99.80
33793;DHT22;20105;48.764;9.178;2022-10-23T01:00:14;11.40;99.90
33793;DHT22;20105;48.764;9.178;2022-10-23T01:02:40;11.40;99.90
33793;DHT22;20105;48.764;9.178;2022-10-23T01:05:06;11.50;99.70
33793;DHT22;20105;48.764;9.178;2022-10-23T01:07:41;11.50;99.70
33793;DHT22;20105;48.764;9.178;2022-10-23T01:10:42;11.50;99.70
33793;DHT22;20105;48.764;9.178;2022-10-23T01:13:15;11.50;99.80
33793;DHT22;20105;48.764;9.178;2022-10-23T01:15:54;11.40;99.90
33793;DHT22;20105;48.764;9.178;2022-10-23T01:18:35;11.40;99.90
33793;DHT22;20105;48.764;9.178;2022-10-23T01:21:10;11.40;99.90
33793;DHT22;20105;48.764;9.178;2022-10-23T01:29:53;11.40;99.90
33793;DHT22;20105;48.764;9.178;2022-10-23T01:35:34;11.40;99.90
33793;DHT22;20105;48.764;9.178;2022-10-23T01:38:06;11.40;99.90
33793;DHT22;20105;48.764;9.178;2022-10-23T01:43:48;11.30;99.90
33793;DHT22;20105;48.764;9.178;2022-10-23T01:46:17;11.30;99.90
33793;DHT22;20105;48.764;9.178;2022-10-23T01:48:48;11.30;99.90
33793;DHT22;20105;48.764;9.178;2022-10-23T01:51:16;11.40;99.90
33793;DHT22;20105;48.764;9.178;2022-10-23T01:53:45;11.40;99.90
33793;DHT22;20105;48.764;9.178;2022-10-23T01:56:24;11.40;99.90
33793;DHT22;20105;48.764;9.178;2022-10-23T01:58:52;11.40;99.90
33793;DHT22;20105;48.764;9.178;2022-10-23T02:01:21;11.50;99.90
33793;DHT22;20105;48.764;9.178;2022-10-23T02:03:49;11.50;99.90
33793;DHT22;20105;48.764;9.178;2022-10-23T02:06:15;11.50;99.90
33793;DHT22;20105;48.764;9.178;2022-10-23T02:08:41;11.40;99.90
33793;DHT22;20105;48.764;9.178;2022-10-23T02:11:12;11.40;99.90
33793;DHT22;20105;48.764;9.178;2022-10-23T02:13:48;11.30;99.90
33793;DHT22;20105;48.764;9.178;2022-10-23T02:16:33;11.30;99.90
33793;DHT22;20105;48.764;9.178;2022-10-23T02:19:20;11.30;99.90
33793;DHT22;20105;48.764;9.178;2022-10-23T02:22:06;11.30;99.90
33793;DHT22;20105;48.764;9.178;2022-10-23T02:24:42;11.20;99.90
33793;DHT22;20105;48.764;9.178;2022-10-23T02:27:11;11.20;99.90
33793;DHT22;20105;48.764;9.178;2022-10-23T02:29:51;11.20;99.90
33793;DHT22;20105;48.764;9.178;2022-10-23T02:32:20;11.20;99.90
33793;DHT22;20105;48.764;9.178;2022-10-23T02:34:46;11.20;99.90
33793;DHT22;20105;48.764;9.178;2022-10-23T02:37:12;11.30;99.90
33793;DHT22;20105;48.764;9.178;2022-10-23T02:39:38;11.40;99.90
33793;DHT22;20105;48.764;9.178;2022-10-23T02:42:14;11.40;99.90
33793;DHT22;20105;48.764;9.178;2022-10-23T02:47:45;11.40;99.90
33793;DHT22;20105;48.764;9.178;2022-10-23T02:51:06;11.40;99.90
33793;DHT22;20105;48.764;9.178;2022-10-23T02:53:36;11.40;99.90
33793;DHT22;20105;48.764;9.178;2022-10-23T02:56:23;11.40;99.90
33793;DHT22;20105;48.764;9.178;2022-10-23T02:58:50;11.40;99.90
33793;DHT22;20105;48.764;9.178;2022-10-23T03:01:26;11.40;99.90
33793;DHT22;20105;48.764;9.178;2022-10-23T03:03:55;11.40;99.90
33793;DHT22;20105;48.764;9.178;2022-10-23T03:06:22;11.40;99.90
33793;DHT22;20105;48.764;9.178;2022-10-23T03:09:12;11.40;99.90
33793;DHT22;20105;48.764;9.178;2022-10-23T03:11:37;11.40;99.90
33793;DHT22;20105;48.764;9.178;2022-10-23T03:14:02;11.40;99.90
33793;DHT22;20105;48.764;9.178;2022-10-23T03:16:28;11.50;99.90
33793;DHT22;20105;48.764;9.178;2022-10-23T03:18:54;11.40;99.90
33793;DHT22;20105;48.764;9.178;2022-10-23T03:21:19;11.40;99.90
33793;DHT22;20105;48.764;9.178;2022-10-23T03:23:45;11.30;99.90
33793;DHT22;20105;48.764;9.178;2022-10-23T03:26:10;11.30;99.90
33793;DHT22;20105;48.764;9.178;2022-10-23T03:28:36;11.20;99.90
33793;DHT22;20105;48.764;9.178;2022-10-23T03:31:02;11.20;99.90
33793;DHT22;20105;48.764;9.178;2022-10-23T03:33:29;11.20;99.90
33793;DHT22;20105;48.764;9.178;2022-10-23T03:35:54;11.20;99.90
33793;DHT22;20105;48.764;9.178;2022-10-23T03:38:20;11.20;99.90
33793;DHT22;20105;48.764;9.178;2022-10-23T03:40:46;11.20;99.90
33793;DHT22;20105;48.764;9.178;2022-10-23T03:43:11;11.20;99.90
33793;DHT22;20105;48.764;9.178;2022-10-23T03:45:37;11.20;99.40
33793;DHT22;20105;48.764;9.178;2022-10-23T03:48:06;11.20;99.00
33793;DHT22;20105;48.764;9.178;2022-10-23T03:50:33;11.20;98.90
33793;DHT22;20105;48.764;9.178;2022-10-23T03:52:59;11.30;98.90
33793;DHT22;20105;48.764;9.178;2022-10-23T03:55:24;11.30;99.00
33793;DHT22;20105;48.764;9.178;2022-10-23T03:57:52;11.30;99.10
33793;DHT22;20105;48.764;9.178;2022-10-23T04:00:17;11.30;99.00
33793;DHT22;20105;48.764;9.178;2022-10-23T04:02:43;11.40;99.10
33793;DHT22;20105;48.764;9.178;2022-10-23T04:05:09;11.40;99.30
33793;DHT22;20105;48.764;9.178;2022-10-23T04:07:35;11.40;99.20
33793;DHT22;20105;48.764;9.178;2022-10-23T04:10:01;11.50;99.50
33793;DHT22;20105;48.764;9.178;2022-10-23T04:12:26;11.50;99.90
33793;DHT22;20105;48.764;9.178;2022-10-23T04:14:52;11.50;99.90
33793;DHT22;20105;48.764;9.178;2022-10-23T04:17:17;11.50;99.90
33793;DHT22;20105;48.764;9.178;2022-10-23T04:19:43;11.50;99.90
33793;DHT22;20105;48.764;9.178;2022-10-23T04:22:08;11.40;99.90
33793;DHT22;20105;48.764;9.178;2022-10-23T04:24:34;11.40;99.90
33793;DHT22;20105;48.764;9.178;2022-10-23T04:27:00;11.40;99.90
33793;DHT22;20105;48.764;9.178;2022-10-23T04:29:25;11.40;99.90
33793;DHT22;20105;48.764;9.178;2022-10-23T04:31:51;11.40;99.90
33793;DHT22;20105;48.764;9.178;2022-10-23T04:34:17;11.40;99.90
33793;DHT22;20105;48.764;9.178;2022-10-23T04:36:43;11.40;99.90
33793;DHT22;20105;48.764;9.178;2022-10-23T04:39:09;11.40;99.70
33793;DHT22;20105;48.764;9.178;2022-10-23T04:41:34;11.40;99.70
33793;DHT22;20105;48.764;9.178;2022-10-23T04:44:00;11.40;99.60
33793;DHT22;20105;48.764;9.178;2022-10-23T04:46:25;11.50;99.90
33793;DHT22;20105;48.764;9.178;2022-10-23T04:48:51;11.50;99.90
33793;DHT22;20105;48.764;9.178;2022-10-23T04:51:16;11.50;99.90
33793;DHT22;20105;48.764;9.178;2022-10-23T04:53:42;11.50;99.90
33793;DHT22;20105;48.764;9.178;2022-10-23T04:56:12;11.50;99.90
33793;DHT22;20105;48.764;9.178;2022-10-23T04:58:38;11.60;99.90
33793;DHT22;20105;48.764;9.178;2022-10-23T05:01:03;11.60;99.90
33793;DHT22;20105;48.764;9.178;2022-10-23T05:03:31;11.60;99.90
33793;DHT22;20105;48.764;9.178;2022-10-23T05:05:57;11.60;99.90
33793;DHT22;20105;48.764;9.178;2022-10-23T05:08:23;11.70;99.90
33793;DHT22;20105;48.764;9.178;2022-10-23T05:10:49;11.70;99.90
33793;DHT22;20105;48.764;9.178;2022-10-23T05:13:17;11.70;99.90
33793;DHT22;20105;48.764;9.178;2022-10-23T05:15:45;11.60;99.90
33793;DHT22;20105;48.764;9.178;2022-10-23T05:18:37;11.60;99.90
33793;DHT22;20105;48.764;9.178;2022-10-23T05:21:08;11.60;99.90
33793;DHT22;20105;48.764;9.178;2022-10-23T05:23:35;11.60;99.90
33793;DHT22;20105;48.764;9.178;2022-10-23T05:26:02;11.70;99.90
33793;DHT22;20105;48.764;9.178;2022-10-23T05:28:28;11.60;99.90
33793;DHT22;20105;48.764;9.178;2022-10-23T05:30:54;11.60;99.90
33793;DHT22;20105;48.764;9.178;2022-10-23T05:33:23;11.60;99.90
33793;DHT22;20105;48.764;9.178;2022-10-23T05:35:48;11.60;99.90
33793;DHT22;20105;48.764;9.178;2022-10-23T05:38:14;11.60;99.90
33793;DHT22;20105;48.764;9.178;2022-10-23T05:40:40;11.60;99.90
33793;DHT22;20105;48.764;9.178;2022-10-23T05:43:06;11.60;99.90
33793;DHT22;20105;48.764;9.178;2022-10-23T05:45:31;11.60;99.90
33793;DHT22;20105;48.764;9.178;2022-10-23T05:47:57;11.60;99.90
33793;DHT22;20105;48.764;9.178;2022-10-23T05:50:22;11.50;99.90
33793;DHT22;20105;48.764;9.178;2022-10-23T05:52:48;11.50;99.90
33793;DHT22;20105;48.764;9.178;2022-10-23T05:55:14;11.50;99.90
33793;DHT22;20105;48.764;9.178;2022-10-23T05:57:40;11.50;99.90
33793;DHT22;20105;48.764;9.178;2022-10-23T06:00:07;11.50;99.90
33793;DHT22;20105;48.764;9.178;2022-10-23T06:02:33;11.40;99.90
33793;DHT22;20105;48.764;9.178;2022-10-23T06:04:58;11.40;99.90
33793;DHT22;20105;48.764;9.178;2022-10-23T06:07:25;11.40;99.90
33793;DHT22;20105;48.764;9.178;2022-10-23T06:09:50;11.40;99.90
33793;DHT22;20105;48.764;9.178;2022-10-23T06:12:17;11.40;99.90
33793;DHT22;20105;48.764;9.178;2022-10-23T06:14:43;11.40;99.90
33793;DHT22;20105;48.764;9.178;2022-10-23T06:17:08;11.50;99.90
33793;DHT22;20105;48.764;9.178;2022-10-23T06:19:34;11.60;99.90
33793;DHT22;20105;48.764;9.178;2022-10-23T06:21:59;11.60;99.90
33793;DHT22;20105;48.764;9.178;2022-10-23T06:24:25;11.60;99.90
33793;DHT22;20105;48.764;9.178;2022-10-23T06:26:50;11.60;99.90
33793;DHT22;20105;48.764;9.178;2022-10-23T06:29:16;11.60;99.90
33793;DHT22;20105;48.764;9.178;2022-10-23T06:31:42;11.70;99.90
33793;DHT22;20105;48.764;9.178;2022-10-23T06:34:10;11.70;99.90
33793;DHT22;20105;48.764;9.178;2022-10-23T06:36:35;11.70;99.90
33793;DHT22;20105;48.764;9.178;2022-10-23T06:39:03;11.80;99.90
33793;DHT22;20105;48.764;9.178;2022-10-23T06:41:28;11.80;99.90
33793;DHT22;20105;48.764;9.178;2022-10-23T06:43:54;11.90;99.90
33793;DHT22;20105;48.764;9.178;2022-10-23T06:46:20;11.90;99.90
33793;DHT22;20105;48.764;9.178;2022-10-23T06:48:45;11.90;99.90
33793;DHT22;20105;48.764;9.178;2022-10-23T06:53:39;11.90;99.90
33793;DHT22;20105;48.764;9.178;2022-10-23T06:56:06;12.00;99.90
33793;DHT22;20105;48.764;9.178;2022-10-23T06:58:33;12.00;99.90
33793;DHT22;20105;48.764;9.178;2022-10-23T07:01:01;12.10;99.90
33793;DHT22;20105;48.764;9.178;2022-10-23T07:03:27;12.10;99.90
33793;DHT22;20105;48.764;9.178;2022-10-23T07:05:52;12.20;99.90
33793;DHT22;20105;48.764;9.178;2022-10-23T07:08:18;12.30;99.90
33793;DHT22;20105;48.764;9.178;2022-10-23T07:10:44;12.40;99.90
33793;DHT22;20105;48.764;9.178;2022-10-23T07:13:10;12.40;99.90
33793;DHT22;20105;48.764;9.178;2022-10-23T07:15:37;12.50;99.90
33793;DHT22;20105;48.764;9.178;2022-10-23T07:18:03;12.50;99.90
33793;DHT22;20105;48.764;9.178;2022-10-23T07:20:29;12.60;99.90
33793;DHT22;20105;48.764;9.178;2022-10-23T07:22:55;12.60;99.90
33793;DHT22;20105;48.764;9.178;2022-10-23T07:25:25;12.70;99.90
33793;DHT22;20105;48.764;9.178;2022-10-23T07:27:51;12.70;99.90
33793;DHT22;20105;48.764;9.178;2022-10-23T07:30:17;12.70;99.90
33793;DHT22;20105;48.764;9.178;2022-10-23T07:32:43;12.70;99.90
33793;DHT22;20105;48.764;9.178;2022-10-23T07:35:10;12.80;99.90
33793;DHT22;20105;48.764;9.178;2022-10-23T07:37:36;12.90;99.90
33793;DHT22;20105;48.764;9.178;2022-10-23T07:40:05;12.90;99.90
33793;DHT22;20105;48.764;9.178;2022-10-23T07:42:31;13.00;99.90
33793;DHT22;20105;48.764;9.178;2022-10-23T07:44:57;13.10;99.90
33793;DHT22;20105;48.764;9.178;2022-10-23T07:47:23;13.20;99.90
33793;DHT22;20105;48.764;9.178;2022-10-23T07:49:48;13.20;99.90
33793;DHT22;20105;48.764;9.178;2022-10-23T07:52:14;13.30;99.90
33793;DHT22;20105;48.764;9.178;2022-10-23T07:54:40;13.40;99.90
33793;DHT22;20105;48.764;9.178;2022-10-23T07:59:32;13.60;99.90
33793;DHT22;20105;48.764;9.178;2022-10-23T08:01:58;13.60;99.90
33793;DHT22;20105;48.764;9.178;2022-10-23T08:04:23;13.70;99.90
33793;DHT22;20105;48.764;9.178;2022-10-23T08:06:49;13.80;99.90
33793;DHT22;20105;48.764;9.178;2022-10-23T08:09:15;13.80;99.90
33793;DHT22;20105;48.764;9.178;2022-10-23T08:11:40;13.90;99.90
33793;DHT22;20105;48.764;9.178;2022-10-23T08:14:07;14.00;99.90
33793;DHT22;20105;48.764;9.178;2022-10-23T08:16:35;14.10;99.90
33793;DHT22;20105;48.764;9.178;2022-10-23T08:19:01;14.20;99.90
33793;DHT22;20105;48.764;9.178;2022-10-23T08:21:27;14.30;99.90
33793;DHT22;20105;48.764;9.178;2022-10-23T17:40:32;19.40;99.90
33793;DHT22;20105;48.764;9.178;2022-10-23T17:42:59;19.30;99.90
33793;DHT22;20105;48.764;9.178;2022-10-23T17:45:24;18.90;99.90
33793;DHT22;20105;48.764;9.178;2022-10-23T17:47:51;18.70;99.90
33793;DHT22;20105;48.764;9.178;2022-10-23T17:50:16;18.60;99.90
33793;DHT22;20105;48.764;9.178;2022-10-23T17:52:42;18.60;99.90
33793;DHT22;20105;48.764;9.178;2022-10-23T17:55:08;18.60;99.90
33793;DHT22;20105;48.764;9.178;2022-10-23T17:57:34;18.40;99.90
33793;DHT22;20105;48.764;9.178;2022-10-23T17:59:59;18.30;99.90
33793;DHT22;20105;48.764;9.178;2022-10-23T18:02:25;18.20;99.90
33793;DHT22;20105;48.764;9.178;2022-10-23T18:04:51;18.10;99.90
33793;DHT22;20105;48.764;9.178;2022-10-23T18:07:17;18.10;99.90
33793;DHT22;20105;48.764;9.178;2022-10-23T18:09:43;18.10;99.90
33793;DHT22;20105;48.764;9.178;2022-10-23T18:12:09;18.10;99.90
33793;DHT22;20105;48.764;9.178;2022-10-23T18:14:35;18.00;99.90
33793;DHT22;20105;48.764;9.178;2022-10-23T18:17:01;17.90;99.90
33793;DHT22;20105;48.764;9.178;2022-10-23T18:19:27;17.80;99.90
33793;DHT22;20105;48.764;9.178;2022-10-23T18:21:54;17.80;99.90
33793;DHT22;20105;48.764;9.178;2022-10-23T18:24:20;17.80;99.90
33793;DHT22;20105;48.764;9.178;2022-10-23T18:26:46;17.80;99.90
33793;DHT22;20105;48.764;9.178;2022-10-23T18:29:16;17.80;99.90
33793;DHT22;20105;48.764;9.178;2022-10-23T18:31:42;17.70;99.90
33793;DHT22;20105;48.764;9.178;2022-10-23T18:36:39;17.60;99.90
33793;DHT22;20105;48.764;9.178;2022-10-23T18:39:07;17.60;99.90
33793;DHT22;20105;48.764;9.178;2022-10-23T18:41:35;17.70;99.90
33793;DHT22;20105;48.764;9.178;2022-10-23T18:44:01;17.70;99.90
33793;DHT22;20105;48.764;9.178;2022-10-23T18:46:27;17.70;99.90
33793;DHT22;20105;48.764;9.178;2022-10-23T18:48:52;17.80;99.90
33793;DHT22;20105;48.764;9.178;2022-10-23T18:51:23;17.80;99.90
33793;DHT22;20105;48.764;9.178;2022-10-23T18:53:49;17.80;99.90
33793;DHT22;20105;48.764;9.178;2022-10-23T18:56:17;17.90;99.90
33793;DHT22;20105;48.764;9.178;2022-10-23T18:58:55;17.90;99.90
33793;DHT22;20105;48.764;9.178;2022-10-23T19:01:21;17.80;99.90
33793;DHT22;20105;48.764;9.178;2022-10-23T19:03:47;17.80;99.90
33793;DHT22;20105;48.764;9.178;2022-10-23T19:06:14;17.80;99.90
33793;DHT22;20105;48.764;9.178;2022-10-23T19:08:42;18.00;99.90
33793;DHT22;20105;48.764;9.178;2022-10-23T19:11:08;18.10;99.90
33793;DHT22;20105;48.764;9.178;2022-10-23T19:13:35;18.20;99.90
33793;DHT22;20105;48.764;9.178;2022-10-23T19:16:03;18.50;99.00
33793;DHT22;20105;48.764;9.178;2022-10-23T19:18:30;18.70;98.80
33793;DHT22;20105;48.764;9.178;2022-10-23T19:20:57;18.60;99.40
33793;DHT22;20105;48.764;9.178;2022-10-23T19:23:24;18.60;99.40
33793;DHT22;20105;48.764;9.178;2022-10-23T19:25:49;18.50;99.90
33793;DHT22;20105;48.764;9.178;2022-10-23T19:28:15;18.50;99.90
33793;DHT22;20105;48.764;9.178;2022-10-23T19:30:41;18.30;99.90
33793;DHT22;20105;48.764;9.178;2022-10-23T19:33:07;18.10;99.90
33793;DHT22;20105;48.764;9.178;2022-10-23T19:35:32;18.00;99.90
33793;DHT22;20105;48.764;9.178;2022-10-23T19:37:58;17.90;99.90
33793;DHT22;20105;48.764;9.178;2022-10-23T19:40:23;17.80;99.90
33793;DHT22;20105;48.764;9.178;2022-10-23T19:42:49;17.80;99.90
33793;DHT22;20105;48.764;9.178;2022-10-23T19:45:15;17.90;99.90
33793;DHT22;20105;48.764;9.178;2022-10-23T19:47:41;18.20;99.90
33793;DHT22;20105;48.764;9.178;2022-10-23T19:50:07;18.20;99.90
33793;DHT22;20105;48.764;9.178;2022-10-23T19:52:33;18.10;99.90
33793;DHT22;20105;48.764;9.178;2022-10-23T19:54:59;17.90;99.90
33793;DHT22;20105;48.764;9.178;2022-10-23T19:57:25;17.80;99.90
33793;DHT22;20105;48.764;9.178;2022-10-23T19:59:51;17.80;99.90
33793;DHT22;20105;48.764;9.178;2022-10-23T20:02:17;17.80;99.90
33793;DHT22;20105;48.764;9.178;2022-10-23T20:04:43;17.80;99.90
33793;DHT22;20105;48.764;9.178;2022-10-23T20:07:09;18.00;99.90
33793;DHT22;20105;48.764;9.178;2022-10-23T20:09:35;18.40;98.40
33793;DHT22;20105;48.764;9.178;2022-10-23T20:12:01;18.60;97.90
33793;DHT22;20105;48.764;9.178;2022-10-23T20:14:28;18.70;97.20
33793;DHT22;20105;48.764;9.178;2022-10-23T20:16:54;18.80;97.10
33793;DHT22;20105;48.764;9.178;2022-10-23T20:19:19;18.90;96.70
33793;DHT22;20105;48.764;9.178;2022-10-23T20:21:47;18.90;96.60
33793;DHT22;20105;48.764;9.178;2022-10-23T20:24:14;18.90;96.30
33793;DHT22;20105;48.764;9.178;2022-10-23T20:26:42;18.90;96.80
33793;DHT22;20105;48.764;9.178;2022-10-23T20:29:08;19.00;96.40
33793;DHT22;20105;48.764;9.178;2022-10-23T20:31:34;19.10;95.60
33793;DHT22;20105;48.764;9.178;2022-10-23T20:34:01;19.20;95.10
33793;DHT22;20105;48.764;9.178;2022-10-23T20:36:52;19.40;94.60
33793;DHT22;20105;48.764;9.178;2022-10-23T20:39:24;19.30;94.70
33793;DHT22;20105;48.764;9.178;2022-10-23T20:41:51;19.30;94.90
33793;DHT22;20105;48.764;9.178;2022-10-23T20:44:17;19.30;94.70
33793;DHT22;20105;48.764;9.178;2022-10-23T20:46:43;19.30;94.80
33793;DHT22;20105;48.764;9.178;2022-10-23T20:49:11;19.30;94.90
33793;DHT22;20105;48.764;9.178;2022-10-23T20:51:37;19.30;94.90
33793;DHT22;20105;48.764;9.178;2022-10-23T20:54:03;19.40;94.60
33793;DHT22;20105;48.764;9.178;2022-10-23T20:56:32;19.40;94.80
33793;DHT22;20105;48.764;9.178;2022-10-23T20:58:59;19.40;94.60
33793;DHT22;20105;48.764;9.178;2022-10-23T21:01:26;19.30;94.70
33793;DHT22;20105;48.764;9.178;2022-10-23T21:03:53;19.40;94.60
33793;DHT22;20105;48.764;9.178;2022-10-23T21:06:23;19.50;94.10
33793;DHT22;20105;48.764;9.178;2022-10-23T21:08:53;19.50;94.10
33793;DHT22;20105;48.764;9.178;2022-10-23T21:26:06;19.60;93.70
33793;DHT22;20105;48.764;9.178;2022-10-23T21:50:31;19.70;93.10
33793;DHT22;20105;48.764;9.178;2022-10-23T21:52:57;19.60;93.30
33793;DHT22;20105;48.764;9.178;2022-10-23T22:17:24;19.40;93.60
33793;DHT22;20105;48.764;9.178;2022-10-23T22:19:49;19.40;93.50
33793;DHT22;20105;48.764;9.178;2022-10-23T22:22:15;19.40;93.50
33793;DHT22;20105;48.764;9.178;2022-10-23T22:24:40;19.30;93.80
33793;DHT22;20105;48.764;9.178;2022-10-23T22:27:06;19.30;93.90
33793;DHT22;20105;48.764;9.178;2022-10-23T22:29:32;19.20;94.10
33793;DHT22;20105;48.764;9.178;2022-10-23T22:31:57;19.20;94.30
33793;DHT22;20105;48.764;9.178;2022-10-23T22:34:25;19.20;94.50
33793;DHT22;20105;48.764;9.178;2022-10-23T22:36:52;19.20;94.20
33793;DHT22;20105;48.764;9.178;2022-10-23T22:39:18;19.20;94.10
33793;DHT22;20105;48.764;9.178;2022-10-23T22:41:44;19.20;94.20
33793;DHT22;20105;48.764;9.178;2022-10-23T22:44:12;19.20;94.40
33793;DHT22;20105;48.764;9.178;2022-10-23T22:46:39;19.20;94.10
33793;DHT22;20105;48.764;9.178;2022-10-23T22:49:05;19.20;94.10
33793;DHT22;20105;48.764;9.178;2022-10-23T22:51:31;19.10;94.20
33793;DHT22;20105;48.764;9.178;2022-10-23T22:53:58;19.10;94.20
33793;DHT22;20105;48.764;9.178;2022-10-23T22:56:28;19.10;94.10
33793;DHT22;20105;48.764;9.178;2022-10-23T22:58:55;19.10;94.30
33793;DHT22;20105;48.764;9.178;2022-10-23T23:01:33;19.10;94.50
33793;DHT22;20105;48.764;9.178;2022-10-23T23:03:59;19.00;94.70
33793;DHT22;20105;48.764;9.178;2022-10-23T23:06:25;18.90;94.80
33793;DHT22;20105;48.764;9.178;2022-10-23T23:08:51;19.00;94.70
33793;DHT22;20105;48.764;9.178;2022-10-23T23:11:18;19.00;94.70
33793;DHT22;20105;48.764;9.178;2022-10-23T23:13:45;18.90;95.00
33793;DHT22;20105;48.764;9.178;2022-10-23T23:16:23;18.90;95.10
33793;DHT22;20105;48.764;9.178;2022-10-23T23:18:49;18.80;95.40
33793;DHT22;20105;48.764;9.178;2022-10-23T23:21:17;18.70;95.60
33793;DHT22;20105;48.764;9.178;2022-10-23T23:23:43;18.80;95.30
33793;DHT22;20105;48.764;9.178;2022-10-23T23:26:09;18.80;95.30
33793;DHT22;20105;48.764;9.178;2022-10-23T23:28:35;18.80;95.20
33793;DHT22;20105;48.764;9.178;2022-10-23T23:31:03;18.80;95.40
33793;DHT22;20105;48.764;9.178;2022-10-23T23:33:29;18.80;95.40
33793;DHT22;20105;48.764;9.178;2022-10-23T23:35:55;18.80;95.30
33793;DHT22;20105;48.764;9.178;2022-10-23T23:38:20;18.80;95.40
33793;DHT22;20105;48.764;9.178;2022-10-23T23:40:50;18.80;95.40
33793;DHT22;20105;48.764;9.178;2022-10-23T23:43:16;18.70;95.30
33793;DHT22;20105;48.764;9.178;2022-10-23T23:45:42;18.70;95.60
33793;DHT22;20105;48.764;9.178;2022-10-23T23:48:07;18.70;95.60
33793;DHT22;20105;48.764;9.178;2022-10-23T23:50:33;18.60;95.50
33793;DHT22;20105;48.764;9.178;2022-10-23T23:52:59;18.70;95.50
33793;DHT22;20105;48.764;9.178;2022-10-23T23:55:24;18.60;95.70
33793;DHT22;20105;48.764;9.178;2022-10-23T23:57:50;18.60;95.60
